Time,TemperatureF,DewpointF,PressureIn,WindDirection,WindDirectionDegrees,WindSpeedMPH,WindSpeedGustMPH,Humidity,HourlyPrecipIn,Conditions,Clouds,dailyrainin,SoftwareType,DateUTC
2013-06-18 00:02:00,55.0,45.0,30.28,North,-999,-999.0,-999.0,70,-99.99,,,-99.99,,2013-06-18 06:02:00,
2013-06-18 00:11:00,55.0,45.0,30.28,North,-999,-999.0,-999.0,70,-99.99,,,-99.99,,2013-06-18 06:11:00,
2013-06-18 00:23:00,54.0,46.0,30.28,North,-999,-999.0,-999.0,72,-99.99,,,-99.99,,2013-06-18 06:23:00,
2013-06-18 00:30:00,54.0,46.0,30.29,North,-999,-999.0,-999.0,73,-99.99,,,-99.99,,2013-06-18 06:30:00,
2013-06-18 00:32:00,54.0,46.0,30.28,North,-999,-999.0,-999.0,72,-99.99,,,-99.99,,2013-06-18 06:32:00,
2013-06-18 00:43:00,54.0,46.0,30.28,North,-999,-999.0,-999.0,72,-99.99,,,-99.99,,2013-06-18 06:43:00,
2013-06-18 00:52:00,54.0,46.0,30.29,North,-999,-999.0,-999.0,73,-99.99,,,-99.99,,2013-06-18 06:52:00,
2013-06-18 01:02:00,54.0,46.0,30.29,North,-999,-999.0,-999.0,73,-99.99,,,-99.99,,2013-06-18 07:02:00,
2013-06-18 01:12:00,54.0,46.0,30.29,North,-999,-999.0,-999.0,73,-99.99,,,-99.99,,2013-06-18 07:12:00,
2013-06-18 01:22:00,54.0,46.0,30.29,North,-999,-999.0,-999.0,73,-99.99,,,-99.99,,2013-06-18 07:22:00,
2013-06-18 02:30:00,51.0,47.0,30.27,North,-999,-999.0,-999.0,84,-99.99,,,-99.99,,2013-06-18 08:30:00,
2013-06-18 02:33:00,52.0,47.0,30.28,North,-999,-999.0,-999.0,81,-99.99,,,-99.99,,2013-06-18 08:33:00,
2013-06-18 02:43:00,52.0,47.0,30.28,North,-999,-999.0,-999.0,81,-99.99,,,-99.99,,2013-06-18 08:43:00,
2013-06-18 02:52:00,51.0,47.0,30.27,North,-999,-999.0,-999.0,84,-99.99,,,-99.99,,2013-06-18 08:52:00,
2013-06-18 03:01:00,51.0,47.0,30.27,North,-999,-999.0,-999.0,84,-99.99,,,-99.99,,2013-06-18 09:01:00,
2013-06-18 03:12:00,51.0,47.0,30.27,North,-999,-999.0,-999.0,84,-99.99,,,-99.99,,2013-06-18 09:12:00,
2013-06-18 03:22:00,51.0,47.0,30.27,North,-999,-999.0,-999.0,84,-99.99,,,-99.99,,2013-06-18 09:22:00,
2013-06-18 09:22:00,60.0,45.0,30.23,North,-999,-999.0,-999.0,56,-99.99,,,-99.99,,2013-06-18 15:22:00,
2013-06-18 09:33:00,60.0,45.0,30.23,North,-999,-999.0,-999.0,56,-99.99,,,-99.99,,2013-06-18 15:33:00,
2013-06-18 09:43:00,60.0,45.0,30.23,North,-999,-999.0,-999.0,56,-99.99,,,-99.99,,2013-06-18 15:43:00,
2013-06-18 09:53:00,64.0,42.0,30.23,North,-999,-999.0,-999.0,45,-99.99,,,-99.99,,2013-06-18 15:53:00,
2013-06-18 10:01:00,64.0,42.0,30.23,North,-999,-999.0,-999.0,45,-99.99,,,-99.99,,2013-06-18 16:01:00,
2013-06-18 10:11:00,64.0,42.0,30.23,North,-999,-999.0,-999.0,45,-99.99,,,-99.99,,2013-06-18 16:11:00,
2013-06-18 10:22:00,67.0,43.0,30.21,North,-999,-999.0,-999.0,42,-99.99,,,-99.99,,2013-06-18 16:22:00,
2013-06-18 10:33:00,67.0,43.0,30.21,North,-999,-999.0,-999.0,42,-99.99,,,-99.99,,2013-06-18 16:33:00,
2013-06-18 10:43:00,67.0,43.0,30.21,North,-999,-999.0,-999.0,42,-99.99,,,-99.99,,2013-06-18 16:43:00,
2013-06-18 10:53:00,71.0,35.0,30.20,North,-999,-999.0,-999.0,27,-99.99,,,-99.99,,2013-06-18 16:53:00,
2013-06-18 11:02:00,71.0,35.0,30.20,North,-999,-999.0,-999.0,27,-99.99,,,-99.99,,2013-06-18 17:02:00,
2013-06-18 11:11:00,71.0,35.0,30.20,North,-999,-999.0,-999.0,27,-99.99,,,-99.99,,2013-06-18 17:11:00,
2013-06-18 11:22:00,72.0,35.0,30.19,North,-999,-999.0,-999.0,26,-99.99,,,-99.99,,2013-06-18 17:22:00,
2013-06-18 11:33:00,72.0,35.0,30.19,North,-999,-999.0,-999.0,26,-99.99,,,-99.99,,2013-06-18 17:33:00,
2013-06-18 11:43:00,72.0,35.0,30.19,North,-999,-999.0,-999.0,26,-99.99,,,-99.99,,2013-06-18 17:43:00,
2013-06-18 11:53:00,72.0,35.0,30.19,North,-999,-999.0,-999.0,26,-99.99,,,-99.99,,2013-06-18 17:53:00,
2013-06-18 12:22:00,73.0,36.0,30.18,North,-999,-999.0,-999.0,25,-99.99,,,-99.99,,2013-06-18 18:22:00,
2013-06-18 12:33:00,73.0,36.0,30.18,North,-999,-999.0,-999.0,25,-99.99,,,-99.99,,2013-06-18 18:33:00,
2013-06-18 12:42:00,73.0,36.0,30.18,North,-999,-999.0,-999.0,25,-99.99,,,-99.99,,2013-06-18 18:42:00,
2013-06-18 12:53:00,74.0,37.0,30.17,North,-999,-999.0,-999.0,26,-99.99,,,-99.99,,2013-06-18 18:53:00,
2013-06-18 13:01:00,74.0,37.0,30.17,North,-999,-999.0,-999.0,26,-99.99,,,-99.99,,2013-06-18 19:01:00,
2013-06-18 13:11:00,74.0,37.0,30.17,North,-999,-999.0,-999.0,26,-99.99,,,-99.99,,2013-06-18 19:11:00,
2013-06-18 13:22:00,74.0,31.0,30.15,North,-999,-999.0,-999.0,20,-99.99,,,-99.99,,2013-06-18 19:22:00,
2013-06-18 13:33:00,74.0,31.0,30.15,North,-999,-999.0,-999.0,20,-99.99,,,-99.99,,2013-06-18 19:33:00,
2013-06-18 13:43:00,74.0,31.0,30.15,North,-999,-999.0,-999.0,20,-99.99,,,-99.99,,2013-06-18 19:43:00,
2013-06-18 13:52:00,73.0,23.0,30.15,North,-999,-999.0,-999.0,15,-99.99,,,-99.99,,2013-06-18 19:52:00,
2013-06-18 14:02:00,73.0,-99.9,30.15,North,-999,-999.0,-999.0,15,-99.99,,,-99.99,,2013-06-18 20:02:00,
2013-06-18 14:11:00,73.0,23.0,30.15,North,-999,-999.0,-999.0,15,-99.99,,,-99.99,,2013-06-18 20:11:00,
2013-06-18 14:23:00,74.0,33.0,30.15,North,-999,-999.0,-999.0,22,-99.99,,,-99.99,,2013-06-18 20:23:00,
2013-06-18 14:33:00,74.0,33.0,30.15,North,-999,-999.0,-999.0,22,-99.99,,,-99.99,,2013-06-18 20:33:00,
2013-06-18 14:43:00,74.0,33.0,30.15,North,-999,-999.0,-999.0,22,-99.99,,,-99.99,,2013-06-18 20:43:00,
2013-06-18 14:52:00,72.0,30.0,30.15,North,-999,-999.0,-999.0,21,-99.99,,,-99.99,,2013-06-18 20:52:00,
2013-06-18 15:01:00,72.0,30.0,30.15,North,-999,-999.0,-999.0,21,-99.99,,,-99.99,,2013-06-18 21:01:00,
2013-06-18 15:11:00,72.0,30.0,30.15,North,-999,-999.0,-999.0,21,-99.99,,,-99.99,,2013-06-18 21:11:00,
2013-06-18 15:22:00,72.0,30.0,30.15,North,-999,-999.0,-999.0,20,-99.99,,,-99.99,,2013-06-18 21:22:00,
2013-06-18 15:33:00,72.0,30.0,30.15,North,-999,-999.0,-999.0,20,-99.99,,,-99.99,,2013-06-18 21:33:00,
2013-06-18 15:43:00,72.0,30.0,30.15,North,-999,-999.0,-999.0,20,-99.99,,,-99.99,,2013-06-18 21:43:00,
2013-06-18 15:52:00,72.0,27.0,30.13,North,-999,-999.0,-999.0,19,-99.99,,,-99.99,,2013-06-18 21:52:00,
2013-06-18 16:01:00,72.0,27.0,30.13,North,-999,-999.0,-999.0,19,-99.99,,,-99.99,,2013-06-18 22:01:00,
2013-06-18 16:11:00,72.0,27.0,30.13,North,-999,-999.0,-999.0,19,-99.99,,,-99.99,,2013-06-18 22:11:00,
2013-06-18 16:22:00,70.0,28.0,30.13,North,-999,-999.0,-999.0,20,-99.99,,,-99.99,,2013-06-18 22:22:00,
2013-06-18 16:34:00,70.0,28.0,30.13,North,-999,-999.0,-999.0,20,-99.99,,,-99.99,,2013-06-18 22:34:00,
2013-06-18 16:43:00,70.0,28.0,30.13,North,-999,-999.0,-999.0,20,-99.99,,,-99.99,,2013-06-18 22:43:00,
2013-06-18 16:53:00,70.0,28.0,30.12,North,-999,-999.0,-999.0,21,-99.99,,,-99.99,,2013-06-18 22:53:00,
2013-06-18 17:01:00,70.0,28.0,30.12,North,-999,-999.0,-999.0,21,-99.99,,,-99.99,,2013-06-18 23:01:00,
2013-06-18 17:11:00,70.0,28.0,30.12,North,-999,-999.0,-999.0,21,-99.99,,,-99.99,,2013-06-18 23:11:00,
2013-06-18 17:23:00,68.0,36.0,30.11,North,-999,-999.0,-999.0,30,-99.99,,,-99.99,,2013-06-18 23:23:00,
2013-06-18 17:30:00,69.0,32.0,30.10,North,-999,-999.0,-999.0,25,-99.99,,,-99.99,,2013-06-18 23:30:00,
2013-06-18 17:35:00,68.0,36.0,30.11,North,-999,-999.0,-999.0,30,-99.99,,,-99.99,,2013-06-18 23:35:00,
2013-06-18 17:48:00,68.0,36.0,30.11,North,-999,-999.0,-999.0,30,-99.99,,,-99.99,,2013-06-18 23:48:00,
2013-06-18 17:53:00,69.0,32.0,30.10,North,-999,-999.0,-999.0,25,-99.99,,,-99.99,,2013-06-18 23:53:00,
2013-06-18 18:01:00,69.0,32.0,30.10,North,-999,-999.0,-999.0,25,-99.99,,,-99.99,,2013-06-19 00:01:00,
2013-06-18 18:11:00,69.0,32.0,30.10,North,-999,-999.0,-999.0,25,-99.99,,,-99.99,,2013-06-19 00:11:00,
2013-06-18 18:22:00,69.0,32.0,30.10,North,-999,-999.0,-999.0,25,-99.99,,,-99.99,,2013-06-19 00:22:00,
2013-06-18 18:53:00,71.0,32.0,30.09,North,-999,-999.0,-999.0,24,-99.99,,,-99.99,,2013-06-19 00:53:00,
2013-06-18 19:01:00,71.0,32.0,30.09,North,-999,-999.0,-999.0,24,-99.99,,,-99.99,,2013-06-19 01:01:00,
2013-06-18 19:11:00,71.0,32.0,30.09,North,-999,-999.0,-999.0,24,-99.99,,,-99.99,,2013-06-19 01:11:00,
2013-06-18 19:22:00,72.0,33.0,30.09,North,-999,-999.0,-999.0,24,-99.99,,,-99.99,,2013-06-19 01:22:00,
2013-06-18 19:32:00,72.0,33.0,30.09,North,-999,-999.0,-999.0,24,-99.99,,,-99.99,,2013-06-19 01:32:00,
2013-06-18 19:43:00,72.0,33.0,30.09,North,-999,-999.0,-999.0,24,-99.99,,,-99.99,,2013-06-19 01:43:00,
2013-06-18 19:53:00,70.0,29.0,30.10,North,-999,-999.0,-999.0,21,-99.99,,,-99.99,,2013-06-19 01:53:00,
2013-06-18 20:01:00,70.0,29.0,30.10,North,-999,-999.0,-999.0,21,-99.99,,,-99.99,,2013-06-19 02:01:00,
2013-06-18 20:11:00,70.0,29.0,30.10,North,-999,-999.0,-999.0,21,-99.99,,,-99.99,,2013-06-19 02:11:00,
2013-06-18 20:21:00,68.0,31.0,30.09,North,-999,-999.0,-999.0,25,-99.99,,,-99.99,,2013-06-19 02:21:00,
2013-06-18 20:32:00,68.0,31.0,30.09,North,-999,-999.0,-999.0,25,-99.99,,,-99.99,,2013-06-19 02:32:00,
2013-06-18 20:42:00,68.0,31.0,30.09,North,-999,-999.0,-999.0,25,-99.99,,,-99.99,,2013-06-19 02:42:00,
2013-06-18 20:52:00,63.0,39.0,30.10,North,-999,-999.0,-999.0,40,-99.99,,,-99.99,,2013-06-19 02:52:00,
2013-06-18 21:01:00,63.0,39.0,30.10,North,-999,-999.0,-999.0,40,-99.99,,,-99.99,,2013-06-19 03:01:00,
2013-06-18 21:11:00,63.0,39.0,30.10,North,-999,-999.0,-999.0,40,-99.99,,,-99.99,,2013-06-19 03:11:00,
2013-06-18 21:21:00,63.0,38.0,30.12,North,-999,-999.0,-999.0,39,-99.99,,,-99.99,,2013-06-19 03:21:00,
2013-06-18 21:33:00,63.0,38.0,30.12,North,-999,-999.0,-999.0,39,-99.99,,,-99.99,,2013-06-19 03:33:00,
2013-06-18 21:43:00,63.0,38.0,30.12,North,-999,-999.0,-999.0,39,-99.99,,,-99.99,,2013-06-19 03:43:00,
2013-06-18 21:52:00,61.0,37.0,30.13,North,-999,-999.0,-999.0,41,-99.99,,,-99.99,,2013-06-19 03:52:00,
2013-06-18 22:01:00,61.0,37.0,30.13,North,-999,-999.0,-999.0,41,-99.99,,,-99.99,,2013-06-19 04:01:00,
2013-06-18 22:11:00,61.0,37.0,30.13,North,-999,-999.0,-999.0,41,-99.99,,,-99.99,,2013-06-19 04:11:00,
2013-06-18 22:22:00,58.0,42.0,30.12,North,-999,-999.0,-999.0,54,-99.99,,,-99.99,,2013-06-19 04:22:00,
2013-06-18 22:32:00,58.0,42.0,30.12,North,-999,-999.0,-999.0,54,-99.99,,,-99.99,,2013-06-19 04:32:00,
2013-06-18 22:43:00,58.0,42.0,30.12,North,-999,-999.0,-999.0,54,-99.99,,,-99.99,,2013-06-19 04:43:00,
2013-06-18 22:53:00,57.0,41.0,30.13,North,-999,-999.0,-999.0,53,-99.99,,,-99.99,,2013-06-19 04:53:00,
2013-06-18 23:01:00,57.0,41.0,30.13,North,-999,-999.0,-999.0,53,-99.99,,,-99.99,,2013-06-19 05:01:00,
2013-06-18 23:11:00,57.0,41.0,30.13,North,-999,-999.0,-999.0,53,-99.99,,,-99.99,,2013-06-19 05:11:00,
2013-06-18 23:22:00,56.0,41.0,30.12,North,-999,-999.0,-999.0,57,-99.99,,,-99.99,,2013-06-19 05:22:00,
2013-06-18 23:32:00,56.0,41.0,30.12,North,-999,-999.0,-999.0,57,-99.99,,,-99.99,,2013-06-19 05:32:00,
2013-06-18 23:43:00,56.0,41.0,30.12,North,-999,-999.0,-999.0,57,-99.99,,,-99.99,,2013-06-19 05:43:00,
2013-06-18 23:52:00,56.0,41.0,30.11,North,-999,-999.0,-999.0,56,-99.99,,,-99.99,,2013-06-19 05:52:00,